sensor_id;sensor_type;location;lat;lon;timestamp;P1;durP1;ratioP1;P2;durP2;ratioP2
35225;SDS011;21813;49.686;21.766;2022-10-31T10:47:54;9.02;;;3.65;;
35225;SDS011;21813;49.686;21.766;2022-10-31T10:50:34;7.60;;;3.78;;
35225;SDS011;21813;49.686;21.766;2022-10-31T10:56:09;7.57;;;3.30;;
35225;SDS011;21813;49.686;21.766;2022-10-31T10:58:40;5.18;;;3.80;;
35225;SDS011;21813;49.686;21.766;2022-10-31T11:01:11;10.60;;;5.30;;
35225;SDS011;21813;49.686;21.766;2022-10-31T11:03:38;7.32;;;3.85;;
35225;SDS011;21813;49.686;21.766;2022-10-31T11:06:18;7.40;;;4.13;;
35225;SDS011;21813;49.686;21.766;2022-10-31T11:08:49;8.70;;;4.47;;
35225;SDS011;21813;49.686;21.766;2022-10-31T11:13:42;12.60;;;4.20;;
35225;SDS011;21813;49.686;21.766;2022-10-31T11:18:54;4.65;;;3.47;;
35225;SDS011;21813;49.686;21.766;2022-10-31T11:21:48;11.60;;;4.28;;
35225;SDS011;21813;49.686;21.766;2022-10-31T11:24:18;6.47;;;3.78;;
35225;SDS011;21813;49.686;21.766;2022-10-31T11:26:47;9.93;;;3.90;;
35225;SDS011;21813;49.686;21.766;2022-10-31T11:29:15;5.45;;;3.90;;
35225;SDS011;21813;49.686;21.766;2022-10-31T11:31:52;6.90;;;4.10;;
35225;SDS011;21813;49.686;21.766;2022-10-31T11:36:49;7.80;;;4.22;;
35225;SDS011;21813;49.686;21.766;2022-10-31T11:39:19;6.03;;;4.25;;
35225;SDS011;21813;49.686;21.766;2022-10-31T11:41:48;6.57;;;4.40;;
35225;SDS011;21813;49.686;21.766;2022-10-31T11:44:27;6.53;;;4.63;;
35225;SDS011;21813;49.686;21.766;2022-10-31T11:46:58;10.45;;;5.55;;
35225;SDS011;21813;49.686;21.766;2022-10-31T11:49:31;11.15;;;6.30;;
35225;SDS011;21813;49.686;21.766;2022-10-31T11:52:14;11.48;;;6.75;;
35225;SDS011;21813;49.686;21.766;2022-10-31T11:57:22;8.52;;;5.40;;
35225;SDS011;21813;49.686;21.766;2022-10-31T11:59:57;6.35;;;4.13;;
35225;SDS011;21813;49.686;21.766;2022-10-31T12:02:28;10.15;;;5.30;;
35225;SDS011;21813;49.686;21.766;2022-10-31T12:07:31;10.43;;;6.25;;
35225;SDS011;21813;49.686;21.766;2022-10-31T12:09:57;9.35;;;6.47;;
35225;SDS011;21813;49.686;21.766;2022-10-31T12:12:35;10.85;;;6.07;;
35225;SDS011;21813;49.686;21.766;2022-10-31T12:15:22;7.50;;;5.30;;
35225;SDS011;21813;49.686;21.766;2022-10-31T12:28:56;8.05;;;4.85;;
35225;SDS011;21813;49.686;21.766;2022-10-31T12:37:25;7.60;;;5.28;;
35225;SDS011;21813;49.686;21.766;2022-10-31T12:43:35;11.25;;;6.65;;
35225;SDS011;21813;49.686;21.766;2022-10-31T12:46:12;12.95;;;7.95;;
35225;SDS011;21813;49.686;21.766;2022-10-31T12:51:44;18.65;;;9.95;;
35225;SDS011;21813;49.686;21.766;2022-10-31T12:57:23;11.43;;;6.30;;
35225;SDS011;21813;49.686;21.766;2022-10-31T13:00:19;10.13;;;5.50;;
35225;SDS011;21813;49.686;21.766;2022-10-31T13:05:30;12.20;;;5.53;;
35225;SDS011;21813;49.686;21.766;2022-10-31T13:07:59;14.45;;;5.25;;
35225;SDS011;21813;49.686;21.766;2022-10-31T13:10:42;11.40;;;5.72;;
35225;SDS011;21813;49.686;21.766;2022-10-31T13:13:13;10.75;;;6.30;;
35225;SDS011;21813;49.686;21.766;2022-10-31T13:15:55;12.07;;;5.00;;
35225;SDS011;21813;49.686;21.766;2022-10-31T13:18:31;12.38;;;6.25;;
35225;SDS011;21813;49.686;21.766;2022-10-31T13:21:02;13.02;;;7.38;;
35225;SDS011;21813;49.686;21.766;2022-10-31T13:23:35;11.50;;;6.43;;
35225;SDS011;21813;49.686;21.766;2022-10-31T13:26:11;14.25;;;7.03;;
35225;SDS011;21813;49.686;21.766;2022-10-31T13:31:30;10.20;;;6.40;;
35225;SDS011;21813;49.686;21.766;2022-10-31T13:33:58;11.35;;;5.88;;
35225;SDS011;21813;49.686;21.766;2022-10-31T13:36:36;9.88;;;5.75;;
35225;SDS011;21813;49.686;21.766;2022-10-31T13:42:20;13.32;;;8.20;;
35225;SDS011;21813;49.686;21.766;2022-10-31T13:44:43;12.43;;;7.50;;
35225;SDS011;21813;49.686;21.766;2022-10-31T13:47:21;17.20;;;9.32;;
35225;SDS011;21813;49.686;21.766;2022-10-31T13:50:03;13.60;;;8.77;;
35225;SDS011;21813;49.686;21.766;2022-10-31T13:52:32;12.18;;;8.30;;
35225;SDS011;21813;49.686;21.766;2022-10-31T14:03:16;17.13;;;10.57;;
35225;SDS011;21813;49.686;21.766;2022-10-31T14:05:51;17.47;;;10.90;;
35225;SDS011;21813;49.686;21.766;2022-10-31T14:08:21;17.23;;;10.27;;
35225;SDS011;21813;49.686;21.766;2022-10-31T14:10:50;15.55;;;8.88;;
35225;SDS011;21813;49.686;21.766;2022-10-31T14:15:58;11.68;;;8.05;;
35225;SDS011;21813;49.686;21.766;2022-10-31T14:20:59;16.27;;;8.07;;
35225;SDS011;21813;49.686;21.766;2022-10-31T14:23:46;17.00;;;8.43;;
35225;SDS011;21813;49.686;21.766;2022-10-31T14:28:54;17.90;;;9.43;;
35225;SDS011;21813;49.686;21.766;2022-10-31T14:34:38;17.10;;;10.05;;
35225;SDS011;21813;49.686;21.766;2022-10-31T14:40:48;20.23;;;10.63;;
35225;SDS011;21813;49.686;21.766;2022-10-31T14:51:50;22.42;;;10.93;;
35225;SDS011;21813;49.686;21.766;2022-10-31T14:54:19;21.98;;;11.60;;
35225;SDS011;21813;49.686;21.766;2022-10-31T14:56:54;22.40;;;11.82;;
35225;SDS011;21813;49.686;21.766;2022-10-31T14:59:25;15.85;;;8.43;;
35225;SDS011;21813;49.686;21.766;2022-10-31T15:01:59;24.38;;;13.45;;
35225;SDS011;21813;49.686;21.766;2022-10-31T15:04:33;28.95;;;13.65;;
35225;SDS011;21813;49.686;21.766;2022-10-31T15:09:43;22.83;;;12.90;;
35225;SDS011;21813;49.686;21.766;2022-10-31T15:14:49;22.20;;;11.93;;
35225;SDS011;21813;49.686;21.766;2022-10-31T15:17:16;26.60;;;13.80;;
35225;SDS011;21813;49.686;21.766;2022-10-31T15:19:43;23.33;;;12.63;;
35225;SDS011;21813;49.686;21.766;2022-10-31T15:22:16;35.80;;;13.88;;
35225;SDS011;21813;49.686;21.766;2022-10-31T15:24:48;29.50;;;13.82;;
35225;SDS011;21813;49.686;21.766;2022-10-31T15:27:21;24.90;;;13.48;;
35225;SDS011;21813;49.686;21.766;2022-10-31T15:29:49;29.52;;;15.10;;
35225;SDS011;21813;49.686;21.766;2022-10-31T15:32:25;26.88;;;13.82;;
35225;SDS011;21813;49.686;21.766;2022-10-31T15:34:53;28.00;;;15.15;;
35225;SDS011;21813;49.686;21.766;2022-10-31T15:37:20;34.72;;;17.60;;
35225;SDS011;21813;49.686;21.766;2022-10-31T15:39:54;36.90;;;16.20;;
35225;SDS011;21813;49.686;21.766;2022-10-31T15:42:28;33.25;;;16.92;;
35225;SDS011;21813;49.686;21.766;2022-10-31T15:45:05;33.95;;;16.05;;
35225;SDS011;21813;49.686;21.766;2022-10-31T15:48:21;35.55;;;16.58;;
35225;SDS011;21813;49.686;21.766;2022-10-31T15:51:16;27.50;;;14.23;;
35225;SDS011;21813;49.686;21.766;2022-10-31T15:54:03;22.70;;;13.63;;
35225;SDS011;21813;49.686;21.766;2022-10-31T15:56:30;36.03;;;15.77;;
35225;SDS011;21813;49.686;21.766;2022-10-31T15:58:59;28.10;;;16.05;;
35225;SDS011;21813;49.686;21.766;2022-10-31T16:01:28;28.40;;;15.80;;
35225;SDS011;21813;49.686;21.766;2022-10-31T16:03:58;29.65;;;15.85;;
35225;SDS011;21813;49.686;21.766;2022-10-31T16:06:24;27.85;;;15.30;;
35225;SDS011;21813;49.686;21.766;2022-10-31T16:08:53;27.38;;;15.27;;
35225;SDS011;21813;49.686;21.766;2022-10-31T16:14:06;27.92;;;15.52;;
35225;SDS011;21813;49.686;21.766;2022-10-31T16:16:41;28.65;;;16.10;;
35225;SDS011;21813;49.686;21.766;2022-10-31T16:19:19;31.55;;;17.52;;
35225;SDS011;21813;49.686;21.766;2022-10-31T16:21:47;33.28;;;19.85;;
35225;SDS011;21813;49.686;21.766;2022-10-31T16:24:30;56.55;;;28.13;;
35225;SDS011;21813;49.686;21.766;2022-10-31T16:27:24;46.65;;;25.70;;
35225;SDS011;21813;49.686;21.766;2022-10-31T16:29:48;57.13;;;27.75;;
35225;SDS011;21813;49.686;21.766;2022-10-31T16:32:31;53.20;;;26.80;;
35225;SDS011;21813;49.686;21.766;2022-10-31T16:37:37;39.22;;;20.65;;
35225;SDS011;21813;49.686;21.766;2022-10-31T16:40:03;36.13;;;21.17;;
35225;SDS011;21813;49.686;21.766;2022-10-31T16:42:29;38.15;;;21.58;;
35225;SDS011;21813;49.686;21.766;2022-10-31T16:44:56;33.72;;;20.55;;
35225;SDS011;21813;49.686;21.766;2022-10-31T16:47:22;37.20;;;19.98;;
35225;SDS011;21813;49.686;21.766;2022-10-31T16:49:48;39.33;;;24.33;;
35225;SDS011;21813;49.686;21.766;2022-10-31T16:52:15;37.90;;;23.83;;
35225;SDS011;21813;49.686;21.766;2022-10-31T16:54:41;47.20;;;27.10;;
35225;SDS011;21813;49.686;21.766;2022-10-31T16:57:09;45.42;;;24.25;;
35225;SDS011;21813;49.686;21.766;2022-10-31T16:59:43;39.60;;;22.35;;
35225;SDS011;21813;49.686;21.766;2022-10-31T17:02:14;36.53;;;21.73;;
35225;SDS011;21813;49.686;21.766;2022-10-31T17:04:42;37.63;;;21.92;;
35225;SDS011;21813;49.686;21.766;2022-10-31T17:07:08;29.13;;;17.60;;
35225;SDS011;21813;49.686;21.766;2022-10-31T17:09:33;32.40;;;18.83;;
35225;SDS011;21813;49.686;21.766;2022-10-31T17:11:59;32.95;;;18.05;;
35225;SDS011;21813;49.686;21.766;2022-10-31T17:14:25;30.48;;;17.45;;
35225;SDS011;21813;49.686;21.766;2022-10-31T17:16:51;35.03;;;19.38;;
35225;SDS011;21813;49.686;21.766;2022-10-31T17:19:16;60.45;;;26.48;;
35225;SDS011;21813;49.686;21.766;2022-10-31T17:21:42;53.38;;;26.63;;
35225;SDS011;21813;49.686;21.766;2022-10-31T17:24:14;43.10;;;22.92;;
35225;SDS011;21813;49.686;21.766;2022-10-31T17:26:40;39.00;;;20.80;;
35225;SDS011;21813;49.686;21.766;2022-10-31T17:29:06;34.83;;;19.17;;
35225;SDS011;21813;49.686;21.766;2022-10-31T17:31:33;51.17;;;26.58;;
35225;SDS011;21813;49.686;21.766;2022-10-31T17:34:05;46.47;;;26.00;;
35225;SDS011;21813;49.686;21.766;2022-10-31T17:36:32;43.72;;;26.42;;
35225;SDS011;21813;49.686;21.766;2022-10-31T17:38:58;46.97;;;27.50;;
35225;SDS011;21813;49.686;21.766;2022-10-31T17:41:24;44.20;;;26.23;;
35225;SDS011;21813;49.686;21.766;2022-10-31T17:43:56;44.97;;;28.30;;
35225;SDS011;21813;49.686;21.766;2022-10-31T17:46:22;53.50;;;28.52;;
35225;SDS011;21813;49.686;21.766;2022-10-31T17:48:49;51.22;;;29.63;;
35225;SDS011;21813;49.686;21.766;2022-10-31T17:51:14;57.35;;;27.05;;
35225;SDS011;21813;49.686;21.766;2022-10-31T17:53:41;50.60;;;29.98;;
35225;SDS011;21813;49.686;21.766;2022-10-31T17:56:07;70.15;;;34.38;;
35225;SDS011;21813;49.686;21.766;2022-10-31T17:58:35;59.95;;;32.97;;
35225;SDS011;21813;49.686;21.766;2022-10-31T18:01:08;60.85;;;32.15;;
35225;SDS011;21813;49.686;21.766;2022-10-31T18:03:39;141.27;;;71.43;;
35225;SDS011;21813;49.686;21.766;2022-10-31T18:06:06;291.98;;;146.70;;
35225;SDS011;21813;49.686;21.766;2022-10-31T18:08:34;306.23;;;153.82;;
35225;SDS011;21813;49.686;21.766;2022-10-31T18:11:05;273.48;;;139.60;;
35225;SDS011;21813;49.686;21.766;2022-10-31T18:13:38;284.75;;;136.15;;
35225;SDS011;21813;49.686;21.766;2022-10-31T18:16:14;255.88;;;126.75;;
35225;SDS011;21813;49.686;21.766;2022-10-31T18:18:42;204.82;;;101.32;;
35225;SDS011;21813;49.686;21.766;2022-10-31T18:21:08;147.80;;;72.97;;
35225;SDS011;21813;49.686;21.766;2022-10-31T18:23:35;157.93;;;78.55;;
35225;SDS011;21813;49.686;21.766;2022-10-31T18:26:01;133.07;;;68.97;;
35225;SDS011;21813;49.686;21.766;2022-10-31T18:28:29;99.50;;;53.65;;
35225;SDS011;21813;49.686;21.766;2022-10-31T18:30:57;104.32;;;56.55;;
35225;SDS011;21813;49.686;21.766;2022-10-31T18:33:26;93.88;;;51.88;;
35225;SDS011;21813;49.686;21.766;2022-10-31T18:35:52;83.72;;;47.65;;
35225;SDS011;21813;49.686;21.766;2022-10-31T18:38:20;73.88;;;40.13;;
35225;SDS011;21813;49.686;21.766;2022-10-31T18:40:46;77.30;;;42.03;;
35225;SDS011;21813;49.686;21.766;2022-10-31T18:43:13;89.60;;;49.00;;
35225;SDS011;21813;49.686;21.766;2022-10-31T18:45:39;114.78;;;61.35;;
35225;SDS011;21813;49.686;21.766;2022-10-31T18:48:05;123.65;;;67.05;;
35225;SDS011;21813;49.686;21.766;2022-10-31T18:50:31;131.68;;;70.07;;
35225;SDS011;21813;49.686;21.766;2022-10-31T18:52:57;233.65;;;123.50;;
35225;SDS011;21813;49.686;21.766;2022-10-31T18:55:23;150.80;;;78.63;;
35225;SDS011;21813;49.686;21.766;2022-10-31T18:57:50;178.55;;;92.05;;
35225;SDS011;21813;49.686;21.766;2022-10-31T19:00:15;198.43;;;98.95;;
35225;SDS011;21813;49.686;21.766;2022-10-31T19:02:45;189.88;;;97.63;;
35225;SDS011;21813;49.686;21.766;2022-10-31T19:05:11;149.73;;;84.00;;
35225;SDS011;21813;49.686;21.766;2022-10-31T19:07:37;147.65;;;79.15;;
35225;SDS011;21813;49.686;21.766;2022-10-31T19:10:02;153.75;;;83.13;;
35225;SDS011;21813;49.686;21.766;2022-10-31T19:12:32;149.73;;;84.65;;
35225;SDS011;21813;49.686;21.766;2022-10-31T19:14:57;158.57;;;91.28;;
35225;SDS011;21813;49.686;21.766;2022-10-31T19:17:24;153.77;;;84.40;;
35225;SDS011;21813;49.686;21.766;2022-10-31T19:19:50;148.60;;;78.38;;
35225;SDS011;21813;49.686;21.766;2022-10-31T19:22:16;157.23;;;81.78;;
35225;SDS011;21813;49.686;21.766;2022-10-31T19:24:42;142.80;;;77.88;;
35225;SDS011;21813;49.686;21.766;2022-10-31T19:27:08;150.38;;;79.35;;
35225;SDS011;21813;49.686;21.766;2022-10-31T19:29:34;152.82;;;81.70;;
35225;SDS011;21813;49.686;21.766;2022-10-31T19:32:00;139.02;;;74.68;;
35225;SDS011;21813;49.686;21.766;2022-10-31T19:34:26;119.78;;;72.25;;
35225;SDS011;21813;49.686;21.766;2022-10-31T19:36:55;141.45;;;74.75;;
35225;SDS011;21813;49.686;21.766;2022-10-31T19:39:21;132.77;;;71.32;;
35225;SDS011;21813;49.686;21.766;2022-10-31T19:41:47;127.22;;;68.22;;
35225;SDS011;21813;49.686;21.766;2022-10-31T19:44:13;133.25;;;72.13;;
35225;SDS011;21813;49.686;21.766;2022-10-31T19:46:39;120.75;;;65.25;;
35225;SDS011;21813;49.686;21.766;2022-10-31T19:49:09;132.48;;;72.82;;
35225;SDS011;21813;49.686;21.766;2022-10-31T19:51:36;108.90;;;59.85;;
35225;SDS011;21813;49.686;21.766;2022-10-31T19:54:01;100.55;;;58.75;;
35225;SDS011;21813;49.686;21.766;2022-10-31T19:56:34;100.05;;;54.35;;
35225;SDS011;21813;49.686;21.766;2022-10-31T19:59:02;106.00;;;58.38;;
35225;SDS011;21813;49.686;21.766;2022-10-31T20:01:30;97.75;;;52.83;;
35225;SDS011;21813;49.686;21.766;2022-10-31T20:04:05;99.53;;;56.13;;
35225;SDS011;21813;49.686;21.766;2022-10-31T20:06:41;107.60;;;57.60;;
35225;SDS011;21813;49.686;21.766;2022-10-31T20:09:16;109.80;;;57.75;;
35225;SDS011;21813;49.686;21.766;2022-10-31T20:14:31;123.72;;;67.20;;
35225;SDS011;21813;49.686;21.766;2022-10-31T20:20:12;126.03;;;67.88;;
35225;SDS011;21813;49.686;21.766;2022-10-31T20:22:42;117.63;;;64.78;;
35225;SDS011;21813;49.686;21.766;2022-10-31T20:25:11;122.28;;;62.83;;
35225;SDS011;21813;49.686;21.766;2022-10-31T20:27:38;117.40;;;61.85;;
35225;SDS011;21813;49.686;21.766;2022-10-31T20:30:03;111.72;;;61.58;;
35225;SDS011;21813;49.686;21.766;2022-10-31T20:32:43;104.88;;;64.00;;
35225;SDS011;21813;49.686;21.766;2022-10-31T20:35:08;115.93;;;63.28;;
35225;SDS011;21813;49.686;21.766;2022-10-31T20:37:36;116.57;;;62.20;;
35225;SDS011;21813;49.686;21.766;2022-10-31T20:40:02;94.13;;;52.88;;
35225;SDS011;21813;49.686;21.766;2022-10-31T20:42:31;90.70;;;48.55;;
35225;SDS011;21813;49.686;21.766;2022-10-31T20:44:57;80.32;;;48.03;;
35225;SDS011;21813;49.686;21.766;2022-10-31T20:47:35;77.75;;;47.75;;
35225;SDS011;21813;49.686;21.766;2022-10-31T20:50:01;78.68;;;46.33;;
35225;SDS011;21813;49.686;21.766;2022-10-31T20:52:29;57.97;;;36.63;;
35225;SDS011;21813;49.686;21.766;2022-10-31T20:54:55;48.47;;;28.05;;
35225;SDS011;21813;49.686;21.766;2022-10-31T20:57:25;54.22;;;29.55;;
35225;SDS011;21813;49.686;21.766;2022-10-31T20:59:50;48.08;;;29.73;;
35225;SDS011;21813;49.686;21.766;2022-10-31T21:02:17;50.75;;;29.67;;
35225;SDS011;21813;49.686;21.766;2022-10-31T21:04:44;55.80;;;32.03;;
35225;SDS011;21813;49.686;21.766;2022-10-31T21:07:10;52.70;;;30.77;;
35225;SDS011;21813;49.686;21.766;2022-10-31T21:09:36;50.42;;;30.58;;
35225;SDS011;21813;49.686;21.766;2022-10-31T21:12:03;43.75;;;25.92;;
35225;SDS011;21813;49.686;21.766;2022-10-31T21:17:34;37.67;;;21.63;;
35225;SDS011;21813;49.686;21.766;2022-10-31T21:19:59;28.63;;;15.35;;
35225;SDS011;21813;49.686;21.766;2022-10-31T21:22:38;27.08;;;15.63;;
35225;SDS011;21813;49.686;21.766;2022-10-31T21:26:08;22.92;;;13.05;;
35225;SDS011;21813;49.686;21.766;2022-10-31T21:29:36;19.10;;;10.68;;
35225;SDS011;21813;49.686;21.766;2022-10-31T21:32:04;19.95;;;11.63;;
35225;SDS011;21813;49.686;21.766;2022-10-31T21:34:35;19.17;;;12.25;;
35225;SDS011;21813;49.686;21.766;2022-10-31T21:37:00;23.42;;;15.48;;
35225;SDS011;21813;49.686;21.766;2022-10-31T21:39:28;26.35;;;17.00;;
35225;SDS011;21813;49.686;21.766;2022-10-31T21:41:54;34.08;;;20.58;;
35225;SDS011;21813;49.686;21.766;2022-10-31T21:44:21;28.38;;;19.13;;
35225;SDS011;21813;49.686;21.766;2022-10-31T21:46:47;30.33;;;20.08;;
35225;SDS011;21813;49.686;21.766;2022-10-31T21:49:14;33.47;;;20.13;;
35225;SDS011;21813;49.686;21.766;2022-10-31T21:51:40;35.80;;;20.77;;
35225;SDS011;21813;49.686;21.766;2022-10-31T21:54:27;27.27;;;18.40;;
35225;SDS011;21813;49.686;21.766;2022-10-31T21:56:55;24.63;;;18.02;;
35225;SDS011;21813;49.686;21.766;2022-10-31T21:59:24;29.17;;;18.38;;
35225;SDS011;21813;49.686;21.766;2022-10-31T22:01:50;30.40;;;19.63;;
35225;SDS011;21813;49.686;21.766;2022-10-31T22:04:25;33.53;;;19.58;;
35225;SDS011;21813;49.686;21.766;2022-10-31T22:06:57;33.72;;;20.95;;
35225;SDS011;21813;49.686;21.766;2022-10-31T22:09:24;32.95;;;19.10;;
35225;SDS011;21813;49.686;21.766;2022-10-31T22:11:50;28.23;;;18.65;;
35225;SDS011;21813;49.686;21.766;2022-10-31T22:14:17;24.08;;;16.58;;
35225;SDS011;21813;49.686;21.766;2022-10-31T22:16:42;26.67;;;16.45;;
35225;SDS011;21813;49.686;21.766;2022-10-31T22:19:18;20.30;;;13.35;;
35225;SDS011;21813;49.686;21.766;2022-10-31T22:21:46;17.98;;;12.40;;
35225;SDS011;21813;49.686;21.766;2022-10-31T22:24:26;21.25;;;12.32;;
35225;SDS011;21813;49.686;21.766;2022-10-31T22:26:52;21.90;;;12.90;;
35225;SDS011;21813;49.686;21.766;2022-10-31T22:29:28;24.40;;;14.13;;
35225;SDS011;21813;49.686;21.766;2022-10-31T22:35:18;24.90;;;15.55;;
35225;SDS011;21813;49.686;21.766;2022-10-31T22:37:44;24.67;;;15.85;;
35225;SDS011;21813;49.686;21.766;2022-10-31T22:40:11;33.97;;;16.50;;
35225;SDS011;21813;49.686;21.766;2022-10-31T22:42:36;24.27;;;15.80;;
35225;SDS011;21813;49.686;21.766;2022-10-31T22:45:03;24.65;;;15.13;;
35225;SDS011;21813;49.686;21.766;2022-10-31T22:47:29;24.58;;;16.25;;
35225;SDS011;21813;49.686;21.766;2022-10-31T22:49:56;24.90;;;16.95;;
35225;SDS011;21813;49.686;21.766;2022-10-31T22:52:21;24.85;;;15.80;;
35225;SDS011;21813;49.686;21.766;2022-10-31T22:54:48;34.25;;;18.30;;
35225;SDS011;21813;49.686;21.766;2022-10-31T22:57:14;34.20;;;19.75;;
35225;SDS011;21813;49.686;21.766;2022-10-31T22:59:40;36.50;;;20.42;;
35225;SDS011;21813;49.686;21.766;2022-10-31T23:02:06;35.25;;;20.45;;
35225;SDS011;21813;49.686;21.766;2022-10-31T23:04:33;37.65;;;22.02;;
35225;SDS011;21813;49.686;21.766;2022-10-31T23:07:02;31.70;;;20.05;;
35225;SDS011;21813;49.686;21.766;2022-10-31T23:09:36;35.08;;;22.23;;
35225;SDS011;21813;49.686;21.766;2022-10-31T23:12:09;33.03;;;20.52;;
35225;SDS011;21813;49.686;21.766;2022-10-31T23:14:54;36.20;;;21.38;;
35225;SDS011;21813;49.686;21.766;2022-10-31T23:20:16;76.85;;;44.42;;
35225;SDS011;21813;49.686;21.766;2022-10-31T23:26:13;65.93;;;35.93;;
35225;SDS011;21813;49.686;21.766;2022-10-31T23:28:59;49.22;;;29.98;;
35225;SDS011;21813;49.686;21.766;2022-10-31T23:31:24;57.85;;;33.97;;
35225;SDS011;21813;49.686;21.766;2022-10-31T23:33:53;75.35;;;41.90;;
35225;SDS011;21813;49.686;21.766;2022-10-31T23:36:19;70.93;;;42.55;;
35225;SDS011;21813;49.686;21.766;2022-10-31T23:38:47;93.82;;;51.97;;
35225;SDS011;21813;49.686;21.766;2022-10-31T23:41:18;85.15;;;48.00;;
35225;SDS011;21813;49.686;21.766;2022-10-31T23:44:46;66.20;;;38.90;;
35225;SDS011;21813;49.686;21.766;2022-10-31T23:47:16;63.63;;;37.25;;
35225;SDS011;21813;49.686;21.766;2022-10-31T23:49:46;77.97;;;43.60;;
35225;SDS011;21813;49.686;21.766;2022-10-31T23:52:15;92.53;;;49.83;;
